createdAt,value
2018-12-20T00:00:45.359Z,91.30
2018-12-20T00:04:49.770Z,90.70
2018-12-20T00:08:54.055Z,90.90
2018-12-20T00:12:58.621Z,90.90
2018-12-20T00:17:08.155Z,90.70
2018-12-20T00:21:12.456Z,90.50
2018-12-20T00:25:16.881Z,90.10
2018-12-20T00:29:21.187Z,90.20
2018-12-20T00:33:25.662Z,90.40
2018-12-20T00:37:29.991Z,89.40
2018-12-20T00:41:34.359Z,90.20
2018-12-20T00:45:38.596Z,90.20
2018-12-20T00:49:42.864Z,90.30
2018-12-20T00:53:47.191Z,90.10
2018-12-20T00:57:51.428Z,90.10
2018-12-20T01:01:55.852Z,90.40
2018-12-20T01:06:00.117Z,90.80
2018-12-20T01:10:04.486Z,91.00
2018-12-20T01:14:08.715Z,90.70
2018-12-20T01:18:13.152Z,91.20
2018-12-20T01:22:17.652Z,91.00
2018-12-20T01:26:22.090Z,90.90
2018-12-20T01:30:26.534Z,91.50
2018-12-20T01:34:30.944Z,90.70
2018-12-20T01:38:35.509Z,91.00
2018-12-20T01:42:39.672Z,90.80
2018-12-20T01:46:43.896Z,90.90
2018-12-20T01:50:48.124Z,90.60
2018-12-20T01:54:52.715Z,90.50
2018-12-20T01:58:56.976Z,90.90
2018-12-20T02:03:01.593Z,90.80
2018-12-20T02:07:05.995Z,90.80
2018-12-20T02:11:10.464Z,91.00
2018-12-20T02:15:14.673Z,90.90
2018-12-20T02:19:19.118Z,90.90
2018-12-20T02:23:23.286Z,91.10
2018-12-20T02:27:27.728Z,91.40
2018-12-20T02:31:32.103Z,91.40
2018-12-20T02:35:36.265Z,91.10
2018-12-20T02:39:40.576Z,91.30
2018-12-20T02:43:45.071Z,91.40
2018-12-20T02:47:49.485Z,91.30
2018-12-20T02:51:53.817Z,91.30
2018-12-20T02:55:58.365Z,91.30
2018-12-20T03:00:03.290Z,91.40
2018-12-20T03:04:07.913Z,91.40
2018-12-20T03:08:12.104Z,91.30
2018-12-20T03:12:16.513Z,91.30
2018-12-20T03:16:20.801Z,91.30
2018-12-20T03:20:25.185Z,91.40
2018-12-20T03:24:29.485Z,91.30
2018-12-20T03:28:33.900Z,91.40
2018-12-20T03:32:38.176Z,91.40
2018-12-20T03:36:42.498Z,91.60
2018-12-20T03:40:46.848Z,91.50
2018-12-20T03:44:51.144Z,92.10
2018-12-20T03:48:55.633Z,91.90
2018-12-20T03:53:00.045Z,92.10
2018-12-20T03:57:04.282Z,92.20
2018-12-20T04:01:08.439Z,92.80
2018-12-20T04:05:12.719Z,93.00
2018-12-20T04:09:16.964Z,92.90
2018-12-20T04:13:21.274Z,93.10
2018-12-20T04:17:25.498Z,93.00
2018-12-20T04:21:29.824Z,92.70
2018-12-20T04:25:33.977Z,92.80
2018-12-20T04:29:38.278Z,92.90
2018-12-20T04:33:42.430Z,93.30
2018-12-20T04:37:46.705Z,93.40
2018-12-20T04:41:50.849Z,93.70
2018-12-20T04:45:55.333Z,94.10
2018-12-20T04:49:59.586Z,94.50
2018-12-20T04:54:03.867Z,94.60
2018-12-20T04:58:08.414Z,94.90
2018-12-20T05:02:12.947Z,95.20
2018-12-20T05:06:17.162Z,95.20
2018-12-20T05:10:21.749Z,95.00
2018-12-20T05:14:26.457Z,95.20
2018-12-20T05:18:31.426Z,95.40
2018-12-20T05:22:35.935Z,95.40
2018-12-20T05:26:40.452Z,95.50
2018-12-20T05:30:44.758Z,95.90
2018-12-20T05:34:49.026Z,95.90
2018-12-20T05:38:53.308Z,95.90
2018-12-20T05:42:57.646Z,95.80
2018-12-20T05:47:02.088Z,95.40
2018-12-20T05:51:06.350Z,95.40
2018-12-20T05:55:10.670Z,95.50
2018-12-20T05:59:15.013Z,95.70
2018-12-20T06:03:19.421Z,95.40
2018-12-20T06:07:23.549Z,95.50
2018-12-20T06:11:27.850Z,95.40
2018-12-20T06:15:32.002Z,95.50
2018-12-20T06:28:06.077Z,95.50
2018-12-20T06:32:10.418Z,95.50
2018-12-20T06:36:14.813Z,95.30
2018-12-20T06:40:19.168Z,95.10
2018-12-20T06:44:23.475Z,94.90
2018-12-20T06:48:27.723Z,94.80
2018-12-20T06:52:32.351Z,95.20
2018-12-20T06:56:36.579Z,94.90
2018-12-20T07:00:40.882Z,94.90
2018-12-20T07:04:45.047Z,95.30
2018-12-20T07:08:49.325Z,95.60
2018-12-20T07:12:53.464Z,95.70
2018-12-20T07:16:57.793Z,96.80
2018-12-20T07:21:02.234Z,97.60
2018-12-20T07:25:06.680Z,99.00
2018-12-20T07:29:10.947Z,99.90
2018-12-20T07:33:15.117Z,99.90
2018-12-20T07:37:19.394Z,99.90
2018-12-20T07:41:23.576Z,99.90
2018-12-20T07:45:27.984Z,99.90
2018-12-20T07:49:32.275Z,99.90
2018-12-20T07:53:36.457Z,99.90
2018-12-20T07:57:44.004Z,99.90
2018-12-20T08:01:48.199Z,99.90
2018-12-20T08:05:52.454Z,99.90
2018-12-20T08:09:56.619Z,99.90
2018-12-20T08:14:01.058Z,99.90
2018-12-20T08:18:05.329Z,99.90
2018-12-20T08:22:09.577Z,99.90
2018-12-20T08:26:13.858Z,99.90
2018-12-20T08:30:19.293Z,99.90
2018-12-20T08:34:23.573Z,99.90
2018-12-20T08:38:27.828Z,99.90
2018-12-20T08:42:32.139Z,99.90
2018-12-20T08:46:38.994Z,99.90
2018-12-20T08:50:56.747Z,99.90
2018-12-20T08:55:06.989Z,99.90
2018-12-20T08:59:11.256Z,99.90
2018-12-20T09:03:19.111Z,99.90
2018-12-20T09:07:23.535Z,99.90
2018-12-20T09:11:27.991Z,99.90
2018-12-20T09:15:32.196Z,99.90
2018-12-20T09:19:36.409Z,99.90
2018-12-20T09:23:40.821Z,99.90
2018-12-20T09:27:44.988Z,99.90
2018-12-20T09:31:53.756Z,99.90
2018-12-20T09:35:58.182Z,99.90
2018-12-20T09:40:02.699Z,99.90
2018-12-20T09:44:07.120Z,99.90
2018-12-20T09:48:11.571Z,99.90
2018-12-20T09:52:16.007Z,99.90
2018-12-20T09:56:20.190Z,99.90
2018-12-20T10:00:24.513Z,99.90
2018-12-20T10:04:28.728Z,99.90
2018-12-20T10:08:33.355Z,99.90
2018-12-20T10:12:37.672Z,99.90
2018-12-20T10:16:42.027Z,99.90
2018-12-20T10:20:46.299Z,99.90
2018-12-20T10:24:50.498Z,99.90
2018-12-20T10:28:54.780Z,99.90
2018-12-20T10:32:58.959Z,99.90
2018-12-20T10:37:03.254Z,99.90
2018-12-20T10:41:07.464Z,99.90
2018-12-20T10:45:11.651Z,99.90
2018-12-20T10:49:16.181Z,99.90
2018-12-20T10:53:20.470Z,99.90
2018-12-20T10:57:25.104Z,99.90
2018-12-20T11:01:34.544Z,99.90
2018-12-20T11:05:44.762Z,99.90
2018-12-20T11:09:55.178Z,99.90
2018-12-20T11:13:59.356Z,99.90
2018-12-20T11:18:03.627Z,99.90
2018-12-20T11:22:07.809Z,99.90
2018-12-20T11:26:11.991Z,99.90
2018-12-20T11:30:16.214Z,99.90
2018-12-20T11:34:20.379Z,99.90
2018-12-20T11:38:24.947Z,99.90
2018-12-20T11:42:29.115Z,98.60
2018-12-20T11:46:33.274Z,97.00
2018-12-20T11:50:37.763Z,95.80
2018-12-20T11:54:42.150Z,96.70
2018-12-20T11:58:46.435Z,96.30
2018-12-20T12:02:50.643Z,95.80
2018-12-20T12:06:56.440Z,97.00
2018-12-20T12:11:00.974Z,97.00
2018-12-20T12:15:10.906Z,97.10
2018-12-20T12:19:15.067Z,97.10
2018-12-20T12:23:21.306Z,96.40
2018-12-20T12:27:25.586Z,96.00
2018-12-20T12:31:33.967Z,96.70
2018-12-20T12:35:38.916Z,97.10
2018-12-20T12:39:48.492Z,97.10
2018-12-20T12:43:52.667Z,96.90
2018-12-20T12:48:03.581Z,96.10
2018-12-20T12:52:06.279Z,94.90
2018-12-20T12:56:11.569Z,93.60
2018-12-20T13:00:20.194Z,93.70
2018-12-20T13:04:24.480Z,94.50
2018-12-20T13:08:29.824Z,95.00
2018-12-20T13:12:36.936Z,95.00
2018-12-20T13:16:48.132Z,95.60
2018-12-20T13:20:53.939Z,94.10
2018-12-20T13:25:00.763Z,94.80
2018-12-20T13:29:05.883Z,94.70
2018-12-20T13:33:10.204Z,94.00
2018-12-20T13:37:15.908Z,94.40
2018-12-20T13:41:21.602Z,95.20
2018-12-20T13:45:25.791Z,95.60
2018-12-20T13:49:29.999Z,96.90
2018-12-20T13:53:34.319Z,97.20
2018-12-20T13:57:38.514Z,97.50
2018-12-20T14:01:46.102Z,98.50
2018-12-20T14:05:50.305Z,99.40
2018-12-20T14:10:02.098Z,99.90
2018-12-20T14:14:06.318Z,99.90
2018-12-20T14:18:15.005Z,99.90
2018-12-20T14:22:19.193Z,99.90
2018-12-20T14:44:15.090Z,99.90
2018-12-20T14:57:15.394Z,99.90
2018-12-20T15:10:16.462Z,99.90
2018-12-20T15:14:20.648Z,99.90
2018-12-20T15:36:35.061Z,99.90
2018-12-20T15:40:39.728Z,99.90
2018-12-20T15:44:47.055Z,99.90
2018-12-20T15:48:56.450Z,99.90
2018-12-20T15:53:16.726Z,99.90
2018-12-20T15:57:39.513Z,99.90
2018-12-20T16:01:44.271Z,99.90
2018-12-20T16:06:00.131Z,99.90
2018-12-20T16:10:05.957Z,99.90
2018-12-20T16:14:28.643Z,99.90
2018-12-20T16:18:34.002Z,99.90
2018-12-20T16:22:39.408Z,99.90
2018-12-20T16:26:43.699Z,99.90
2018-12-20T16:30:47.935Z,99.90
2018-12-20T16:34:52.124Z,99.90
2018-12-20T16:38:56.923Z,99.90
2018-12-20T16:43:01.138Z,99.90
2018-12-20T16:47:05.380Z,99.90
2018-12-20T16:51:14.491Z,99.90
2018-12-20T16:55:18.700Z,99.90
2018-12-20T16:59:23.110Z,99.90
2018-12-20T17:03:27.794Z,99.90
2018-12-20T17:07:32.327Z,99.90
2018-12-20T17:11:36.995Z,99.90
2018-12-20T17:15:41.307Z,99.90
2018-12-20T17:19:45.594Z,99.90
2018-12-20T17:23:49.874Z,99.90
2018-12-20T17:27:54.437Z,99.90
2018-12-20T17:31:58.598Z,99.90
2018-12-20T17:36:02.805Z,99.90
2018-12-20T17:40:07.810Z,99.90
2018-12-20T17:44:12.204Z,99.90
2018-12-20T17:48:16.395Z,99.90
2018-12-20T17:52:24.906Z,99.90
2018-12-20T17:56:29.251Z,99.90
2018-12-20T18:00:33.667Z,99.90
2018-12-20T18:04:41.820Z,99.90
2018-12-20T18:08:46.119Z,99.90
2018-12-20T18:12:56.068Z,99.90
2018-12-20T18:17:00.393Z,99.90
2018-12-20T18:21:06.708Z,99.90
2018-12-20T18:25:10.943Z,99.90
2018-12-20T18:29:16.407Z,99.90
2018-12-20T18:33:20.748Z,99.90
2018-12-20T18:37:28.809Z,99.90
2018-12-20T18:41:33.096Z,99.90
2018-12-20T18:45:37.855Z,99.90
2018-12-20T18:49:47.548Z,99.90
2018-12-20T18:53:48.413Z,99.90
2018-12-20T18:57:55.007Z,99.90
2018-12-20T19:01:59.571Z,99.90
2018-12-20T19:06:03.989Z,99.90
2018-12-20T19:10:10.219Z,99.90
2018-12-20T19:14:16.250Z,99.90
2018-12-20T19:18:20.794Z,99.90
2018-12-20T19:22:25.758Z,99.90
2018-12-20T19:26:30.109Z,99.90
2018-12-20T19:30:35.908Z,99.90
2018-12-20T19:34:40.484Z,99.90
2018-12-20T19:38:44.944Z,99.90
2018-12-20T19:42:50.144Z,99.90
2018-12-20T19:47:00.122Z,99.90
2018-12-20T19:51:04.511Z,99.90
2018-12-20T19:55:09.148Z,99.90
2018-12-20T19:59:13.351Z,99.90
2018-12-20T20:03:18.028Z,99.90
2018-12-20T20:07:23.925Z,99.90
2018-12-20T20:11:28.883Z,99.90
2018-12-20T20:15:33.280Z,99.90
2018-12-20T20:19:41.519Z,99.90
2018-12-20T20:23:45.777Z,99.90
2018-12-20T20:27:54.403Z,99.90
2018-12-20T20:31:58.829Z,99.90
2018-12-20T20:36:03.156Z,99.90
2018-12-20T20:40:09.488Z,99.90
2018-12-20T20:44:15.615Z,99.90
2018-12-20T20:48:22.103Z,99.90
2018-12-20T20:52:30.762Z,99.90
2018-12-20T20:56:35.378Z,99.90
2018-12-20T21:00:40.443Z,99.90
2018-12-20T21:04:44.885Z,99.90
2018-12-20T21:08:49.170Z,99.90
2018-12-20T21:13:00.089Z,99.90
2018-12-20T21:17:04.440Z,99.90
2018-12-20T21:21:09.149Z,99.90
2018-12-20T21:25:13.689Z,99.90
2018-12-20T21:29:24.360Z,99.90
2018-12-20T21:33:29.593Z,99.90
2018-12-20T21:37:34.875Z,99.90
2018-12-20T21:41:39.373Z,99.90
2018-12-20T21:45:44.754Z,99.90
2018-12-20T21:49:49.280Z,99.90
2018-12-20T21:53:55.208Z,99.90
2018-12-20T21:58:00.491Z,99.90
2018-12-20T22:02:08.483Z,99.90
2018-12-20T22:06:12.703Z,99.90
2018-12-20T22:10:17.467Z,99.90
2018-12-20T22:14:21.924Z,99.90
2018-12-20T22:18:30.107Z,99.90
2018-12-20T22:22:34.277Z,99.90
2018-12-20T22:26:38.956Z,99.90
2018-12-20T22:30:43.128Z,99.90
2018-12-20T22:34:49.481Z,99.90
2018-12-20T22:38:53.671Z,99.90
2018-12-20T22:43:05.561Z,99.90
2018-12-20T22:47:09.782Z,99.90
2018-12-20T22:51:19.369Z,99.90
2018-12-20T22:55:23.751Z,99.90
2018-12-20T22:59:27.914Z,99.90
2018-12-20T23:03:32.764Z,99.90
2018-12-20T23:07:37.119Z,99.90
2018-12-20T23:11:47.367Z,99.90
2018-12-20T23:15:52.531Z,99.90
2018-12-20T23:20:05.930Z,99.90
2018-12-20T23:24:10.381Z,99.90
2018-12-20T23:28:19.847Z,99.90
2018-12-20T23:32:24.038Z,99.90
2018-12-20T23:36:38.855Z,99.90
2018-12-20T23:40:43.126Z,99.90
2018-12-20T23:44:47.723Z,99.90
2018-12-20T23:48:51.907Z,99.90
2018-12-20T23:52:59.438Z,99.90
2018-12-20T23:57:05.058Z,99.90
